General Aviation Weather

Text Reports

Enter one or more of the following location identifiers separated by a space:

Zip Code, Four-Character ICAO or Three-Character IATA airport codes.

METAR - Aviation Routine Weather Report
KUOX - Oxford, Mississippi
Updated at 3:55 AM GMT on July 23, 2014 (10:55 PM CDT):
METAR KUOX 230355Z AUTO 00000KT 10SM VCTS CLR 24/22 A3010 RMK AO2 LTG DSNT SW
TAF - Terminal Area Forecast
KUOX - Oxford, Mississippi
Updated at 3:55 AM GMT on July 23, 2014 (10:55 PM CDT):
No TAF is currently available for this location.
Decoded:
No decoded TAF is available.
PIREP - Pilot Weather Report
KUOX - Oxford, Mississippi
Updated at 3:55 AM GMT on July 23, 2014 (10:55 PM CDT):
No PIREP is currently available for this location.
AIRMET - Airmens Meteorological Information
KUOX - Oxford, Mississippi
Updated at 3:55 AM GMT on July 23, 2014 (10:55 PM CDT):
No AIRMET is currently available for this location.
SIGMET - Significant Meteorological Information
KUOX - Oxford, Mississippi
Updated at 3:55 AM GMT on July 23, 2014 (10:55 PM CDT):
No SIGMET is currently available for this location.
NOTAM - Notice to Airmen
KUOX - Oxford, Mississippi
Updated at 3:55 AM GMT on July 23, 2014 (10:55 PM CDT):
No NOTAM is currently available for this location.
Forecast Area
KUOX - Oxford, Mississippi
Updated at 3:55 AM GMT on July 23, 2014 (10:55 PM CDT):
No NOTAM is currently available for this location.
Aviation Weather Maps